sensor_id;sensor_type;location;lat;lon;timestamp;temperature;humidity
20735;DHT22;10528;52.124;5.196;2023-11-22T00:01:04;5.20;99.90
20735;DHT22;10528;52.124;5.196;2023-11-22T00:03:32;5.10;99.90
20735;DHT22;10528;52.124;5.196;2023-11-22T00:05:59;5.10;99.90
20735;DHT22;10528;52.124;5.196;2023-11-22T00:08:27;5.20;99.90
20735;DHT22;10528;52.124;5.196;2023-11-22T00:10:56;5.20;99.90
20735;DHT22;10528;52.124;5.196;2023-11-22T00:13:23;5.20;99.90
20735;DHT22;10528;52.124;5.196;2023-11-22T00:15:50;5.20;99.90
20735;DHT22;10528;52.124;5.196;2023-11-22T00:18:17;5.20;99.90
20735;DHT22;10528;52.124;5.196;2023-11-22T00:20:44;5.20;99.90
20735;DHT22;10528;52.124;5.196;2023-11-22T00:23:14;5.20;99.90
20735;DHT22;10528;52.124;5.196;2023-11-22T00:25:41;5.20;99.90
20735;DHT22;10528;52.124;5.196;2023-11-22T00:28:08;5.30;99.90
20735;DHT22;10528;52.124;5.196;2023-11-22T00:30:36;5.30;99.90
20735;DHT22;10528;52.124;5.196;2023-11-22T00:33:03;5.30;99.90
20735;DHT22;10528;52.124;5.196;2023-11-22T00:35:31;5.30;99.90
20735;DHT22;10528;52.124;5.196;2023-11-22T00:37:58;5.20;99.90
20735;DHT22;10528;52.124;5.196;2023-11-22T00:40:25;5.20;99.90
20735;DHT22;10528;52.124;5.196;2023-11-22T00:42:52;5.20;99.90
20735;DHT22;10528;52.124;5.196;2023-11-22T00:45:19;5.20;99.90
20735;DHT22;10528;52.124;5.196;2023-11-22T00:47:46;5.20;99.90
20735;DHT22;10528;52.124;5.196;2023-11-22T00:50:13;5.10;99.90
20735;DHT22;10528;52.124;5.196;2023-11-22T00:52:40;5.10;99.90
20735;DHT22;10528;52.124;5.196;2023-11-22T00:55:11;5.00;99.90
20735;DHT22;10528;52.124;5.196;2023-11-22T00:57:38;5.00;99.90
20735;DHT22;10528;52.124;5.196;2023-11-22T01:00:07;5.00;99.90
20735;DHT22;10528;52.124;5.196;2023-11-22T01:02:36;4.90;99.90
20735;DHT22;10528;52.124;5.196;2023-11-22T01:05:06;4.90;99.90
20735;DHT22;10528;52.124;5.196;2023-11-22T01:07:38;4.90;99.90
20735;DHT22;10528;52.124;5.196;2023-11-22T01:10:05;4.90;99.90
20735;DHT22;10528;52.124;5.196;2023-11-22T01:12:33;4.80;99.90
20735;DHT22;10528;52.124;5.196;2023-11-22T01:15:00;4.80;99.90
20735;DHT22;10528;52.124;5.196;2023-11-22T01:17:27;4.70;99.90
20735;DHT22;10528;52.124;5.196;2023-11-22T01:19:54;4.80;99.90
20735;DHT22;10528;52.124;5.196;2023-11-22T01:22:21;4.80;99.90
20735;DHT22;10528;52.124;5.196;2023-11-22T01:24:48;4.70;99.90
20735;DHT22;10528;52.124;5.196;2023-11-22T01:27:17;4.70;99.90
20735;DHT22;10528;52.124;5.196;2023-11-22T01:29:44;4.70;99.90
20735;DHT22;10528;52.124;5.196;2023-11-22T01:32:11;4.60;99.90
20735;DHT22;10528;52.124;5.196;2023-11-22T01:34:38;4.60;99.90
20735;DHT22;10528;52.124;5.196;2023-11-22T01:37:04;4.60;99.90
20735;DHT22;10528;52.124;5.196;2023-11-22T01:39:31;4.50;99.90
20735;DHT22;10528;52.124;5.196;2023-11-22T01:41:58;4.50;99.90
20735;DHT22;10528;52.124;5.196;2023-11-22T01:44:26;4.50;99.90
20735;DHT22;10528;52.124;5.196;2023-11-22T01:46:54;4.50;99.90
20735;DHT22;10528;52.124;5.196;2023-11-22T01:49:22;4.40;99.90
20735;DHT22;10528;52.124;5.196;2023-11-22T01:51:50;4.30;99.90
20735;DHT22;10528;52.124;5.196;2023-11-22T01:54:18;4.40;99.90
20735;DHT22;10528;52.124;5.196;2023-11-22T01:56:48;4.30;99.90
20735;DHT22;10528;52.124;5.196;2023-11-22T01:59:16;4.30;99.90
20735;DHT22;10528;52.124;5.196;2023-11-22T02:01:44;4.30;99.90
20735;DHT22;10528;52.124;5.196;2023-11-22T02:04:14;4.20;99.90
20735;DHT22;10528;52.124;5.196;2023-11-22T02:06:42;4.20;99.90
20735;DHT22;10528;52.124;5.196;2023-11-22T02:09:09;4.20;99.90
20735;DHT22;10528;52.124;5.196;2023-11-22T02:11:40;4.10;99.90
20735;DHT22;10528;52.124;5.196;2023-11-22T02:14:08;4.10;99.90
20735;DHT22;10528;52.124;5.196;2023-11-22T02:16:36;4.10;99.90
20735;DHT22;10528;52.124;5.196;2023-11-22T02:19:06;4.00;99.90
20735;DHT22;10528;52.124;5.196;2023-11-22T02:21:34;4.10;99.90
20735;DHT22;10528;52.124;5.196;2023-11-22T02:24:01;4.00;99.90
20735;DHT22;10528;52.124;5.196;2023-11-22T02:26:28;4.00;99.90
20735;DHT22;10528;52.124;5.196;2023-11-22T02:28:56;3.90;99.90
20735;DHT22;10528;52.124;5.196;2023-11-22T02:31:23;3.90;99.90
20735;DHT22;10528;52.124;5.196;2023-11-22T02:33:50;3.90;99.90
20735;DHT22;10528;52.124;5.196;2023-11-22T02:36:18;3.80;99.90
20735;DHT22;10528;52.124;5.196;2023-11-22T02:38:45;3.80;99.90
20735;DHT22;10528;52.124;5.196;2023-11-22T02:41:13;3.80;99.90
20735;DHT22;10528;52.124;5.196;2023-11-22T02:43:40;3.80;99.90
20735;DHT22;10528;52.124;5.196;2023-11-22T02:46:11;3.80;99.90
20735;DHT22;10528;52.124;5.196;2023-11-22T02:48:38;3.70;99.90
20735;DHT22;10528;52.124;5.196;2023-11-22T02:51:05;3.70;99.90
20735;DHT22;10528;52.124;5.196;2023-11-22T02:53:33;3.60;99.90
20735;DHT22;10528;52.124;5.196;2023-11-22T02:56:01;3.60;99.90
20735;DHT22;10528;52.124;5.196;2023-11-22T02:58:29;3.60;99.90
20735;DHT22;10528;52.124;5.196;2023-11-22T03:00:57;3.60;99.90
20735;DHT22;10528;52.124;5.196;2023-11-22T03:03:24;3.50;99.90
20735;DHT22;10528;52.124;5.196;2023-11-22T03:05:51;3.50;99.90
20735;DHT22;10528;52.124;5.196;2023-11-22T03:08:18;3.40;99.90
20735;DHT22;10528;52.124;5.196;2023-11-22T03:10:45;3.40;99.90
20735;DHT22;10528;52.124;5.196;2023-11-22T03:13:12;3.30;99.90
20735;DHT22;10528;52.124;5.196;2023-11-22T03:15:39;3.20;99.90
20735;DHT22;10528;52.124;5.196;2023-11-22T03:18:06;3.30;99.90
20735;DHT22;10528;52.124;5.196;2023-11-22T03:20:34;3.30;99.90
20735;DHT22;10528;52.124;5.196;2023-11-22T03:23:01;3.40;99.90
20735;DHT22;10528;52.124;5.196;2023-11-22T03:25:28;3.40;99.90
20735;DHT22;10528;52.124;5.196;2023-11-22T03:27:55;3.50;99.90
20735;DHT22;10528;52.124;5.196;2023-11-22T03:30:22;3.40;99.90
20735;DHT22;10528;52.124;5.196;2023-11-22T03:32:49;3.30;99.90
20735;DHT22;10528;52.124;5.196;2023-11-22T03:35:17;3.40;99.90
20735;DHT22;10528;52.124;5.196;2023-11-22T03:37:44;3.40;99.90
20735;DHT22;10528;52.124;5.196;2023-11-22T03:40:11;3.30;99.90
20735;DHT22;10528;52.124;5.196;2023-11-22T03:42:41;3.30;99.90
20735;DHT22;10528;52.124;5.196;2023-11-22T03:45:08;3.40;99.90
20735;DHT22;10528;52.124;5.196;2023-11-22T03:47:36;3.40;99.90
20735;DHT22;10528;52.124;5.196;2023-11-22T03:50:06;3.40;99.90
20735;DHT22;10528;52.124;5.196;2023-11-22T03:52:33;3.40;99.90
20735;DHT22;10528;52.124;5.196;2023-11-22T03:55:00;3.40;99.90
20735;DHT22;10528;52.124;5.196;2023-11-22T03:57:27;3.40;99.90
20735;DHT22;10528;52.124;5.196;2023-11-22T03:59:54;3.40;99.90
20735;DHT22;10528;52.124;5.196;2023-11-22T04:02:21;3.40;99.90
20735;DHT22;10528;52.124;5.196;2023-11-22T04:04:48;3.50;99.90
20735;DHT22;10528;52.124;5.196;2023-11-22T04:07:15;3.50;99.90
20735;DHT22;10528;52.124;5.196;2023-11-22T04:09:42;3.50;99.90
20735;DHT22;10528;52.124;5.196;2023-11-22T04:12:09;3.40;99.90
20735;DHT22;10528;52.124;5.196;2023-11-22T04:14:36;3.60;99.90
20735;DHT22;10528;52.124;5.196;2023-11-22T04:17:04;3.60;99.90
20735;DHT22;10528;52.124;5.196;2023-11-22T04:19:31;3.70;99.90
20735;DHT22;10528;52.124;5.196;2023-11-22T04:21:58;3.80;99.90
20735;DHT22;10528;52.124;5.196;2023-11-22T04:24:26;3.90;99.90
20735;DHT22;10528;52.124;5.196;2023-11-22T04:26:53;3.90;99.90
20735;DHT22;10528;52.124;5.196;2023-11-22T04:29:20;3.90;99.90
20735;DHT22;10528;52.124;5.196;2023-11-22T04:31:47;3.80;99.90
20735;DHT22;10528;52.124;5.196;2023-11-22T04:34:14;3.90;99.90
20735;DHT22;10528;52.124;5.196;2023-11-22T04:36:41;4.00;99.90
20735;DHT22;10528;52.124;5.196;2023-11-22T04:39:08;3.90;99.90
20735;DHT22;10528;52.124;5.196;2023-11-22T04:41:36;4.00;99.90
20735;DHT22;10528;52.124;5.196;2023-11-22T04:44:04;4.10;99.90
20735;DHT22;10528;52.124;5.196;2023-11-22T04:46:31;4.10;99.90
20735;DHT22;10528;52.124;5.196;2023-11-22T04:48:58;4.10;99.90
20735;DHT22;10528;52.124;5.196;2023-11-22T04:51:25;4.20;99.90
20735;DHT22;10528;52.124;5.196;2023-11-22T04:53:55;4.20;99.90
20735;DHT22;10528;52.124;5.196;2023-11-22T04:56:22;4.30;99.90
20735;DHT22;10528;52.124;5.196;2023-11-22T04:58:49;4.20;99.90
20735;DHT22;10528;52.124;5.196;2023-11-22T05:01:16;4.10;99.90
20735;DHT22;10528;52.124;5.196;2023-11-22T05:03:47;4.10;99.90
20735;DHT22;10528;52.124;5.196;2023-11-22T05:06:14;4.00;99.90
20735;DHT22;10528;52.124;5.196;2023-11-22T05:08:41;4.00;99.90
20735;DHT22;10528;52.124;5.196;2023-11-22T05:11:08;4.00;99.90
20735;DHT22;10528;52.124;5.196;2023-11-22T05:13:36;4.00;99.90
20735;DHT22;10528;52.124;5.196;2023-11-22T05:16:03;4.00;99.90
20735;DHT22;10528;52.124;5.196;2023-11-22T05:18:30;4.10;99.90
20735;DHT22;10528;52.124;5.196;2023-11-22T05:20:57;4.10;99.90
20735;DHT22;10528;52.124;5.196;2023-11-22T05:23:24;4.10;99.90
20735;DHT22;10528;52.124;5.196;2023-11-22T05:25:51;4.10;99.90
20735;DHT22;10528;52.124;5.196;2023-11-22T05:28:18;4.10;99.90
20735;DHT22;10528;52.124;5.196;2023-11-22T05:30:45;4.10;99.90
20735;DHT22;10528;52.124;5.196;2023-11-22T05:33:12;4.10;99.90
20735;DHT22;10528;52.124;5.196;2023-11-22T05:35:39;4.10;99.90
20735;DHT22;10528;52.124;5.196;2023-11-22T05:38:07;4.10;99.90
20735;DHT22;10528;52.124;5.196;2023-11-22T05:40:35;4.00;99.90
20735;DHT22;10528;52.124;5.196;2023-11-22T05:43:02;4.00;99.90
20735;DHT22;10528;52.124;5.196;2023-11-22T05:45:29;4.10;99.90
20735;DHT22;10528;52.124;5.196;2023-11-22T05:47:56;4.10;99.90
20735;DHT22;10528;52.124;5.196;2023-11-22T05:50:23;4.10;99.90
20735;DHT22;10528;52.124;5.196;2023-11-22T05:52:50;4.10;99.90
20735;DHT22;10528;52.124;5.196;2023-11-22T05:55:17;4.10;99.90
20735;DHT22;10528;52.124;5.196;2023-11-22T05:57:45;4.20;99.90
20735;DHT22;10528;52.124;5.196;2023-11-22T06:00:12;4.20;99.90
20735;DHT22;10528;52.124;5.196;2023-11-22T06:02:41;4.20;99.90
20735;DHT22;10528;52.124;5.196;2023-11-22T06:05:08;4.10;99.90
20735;DHT22;10528;52.124;5.196;2023-11-22T06:07:36;4.10;99.90
20735;DHT22;10528;52.124;5.196;2023-11-22T06:10:03;4.10;99.90
20735;DHT22;10528;52.124;5.196;2023-11-22T06:12:31;4.20;99.90
20735;DHT22;10528;52.124;5.196;2023-11-22T06:14:58;4.20;99.90
20735;DHT22;10528;52.124;5.196;2023-11-22T06:17:24;4.20;99.90
20735;DHT22;10528;52.124;5.196;2023-11-22T06:19:51;4.20;99.90
20735;DHT22;10528;52.124;5.196;2023-11-22T06:22:18;4.30;99.90
20735;DHT22;10528;52.124;5.196;2023-11-22T06:24:46;4.30;99.90
20735;DHT22;10528;52.124;5.196;2023-11-22T06:27:14;4.30;99.90
20735;DHT22;10528;52.124;5.196;2023-11-22T06:29:44;4.30;99.90
20735;DHT22;10528;52.124;5.196;2023-11-22T06:32:11;4.30;99.90
20735;DHT22;10528;52.124;5.196;2023-11-22T06:34:38;4.30;99.90
20735;DHT22;10528;52.124;5.196;2023-11-22T06:37:06;4.30;99.90
20735;DHT22;10528;52.124;5.196;2023-11-22T06:39:35;4.30;99.90
20735;DHT22;10528;52.124;5.196;2023-11-22T06:42:02;4.30;99.90
20735;DHT22;10528;52.124;5.196;2023-11-22T06:44:29;4.20;99.90
20735;DHT22;10528;52.124;5.196;2023-11-22T06:46:56;4.30;99.90
20735;DHT22;10528;52.124;5.196;2023-11-22T06:49:23;4.30;99.90
20735;DHT22;10528;52.124;5.196;2023-11-22T06:51:50;4.30;99.90
20735;DHT22;10528;52.124;5.196;2023-11-22T06:54:19;4.30;99.90
20735;DHT22;10528;52.124;5.196;2023-11-22T06:56:47;4.30;99.90
20735;DHT22;10528;52.124;5.196;2023-11-22T06:59:14;4.20;99.90
20735;DHT22;10528;52.124;5.196;2023-11-22T07:01:41;4.20;99.90
20735;DHT22;10528;52.124;5.196;2023-11-22T07:04:09;4.20;99.90
20735;DHT22;10528;52.124;5.196;2023-11-22T07:06:37;4.30;99.90
20735;DHT22;10528;52.124;5.196;2023-11-22T07:09:04;4.40;99.90
20735;DHT22;10528;52.124;5.196;2023-11-22T07:11:32;4.30;99.90
20735;DHT22;10528;52.124;5.196;2023-11-22T07:13:59;4.30;99.90
20735;DHT22;10528;52.124;5.196;2023-11-22T07:16:26;4.30;99.90
20735;DHT22;10528;52.124;5.196;2023-11-22T07:18:53;4.30;99.90
20735;DHT22;10528;52.124;5.196;2023-11-22T07:21:20;4.40;99.90
20735;DHT22;10528;52.124;5.196;2023-11-22T07:23:48;4.30;99.90
20735;DHT22;10528;52.124;5.196;2023-11-22T07:26:18;4.30;99.90
20735;DHT22;10528;52.124;5.196;2023-11-22T07:28:46;4.30;99.90
20735;DHT22;10528;52.124;5.196;2023-11-22T07:31:13;4.30;99.90
20735;DHT22;10528;52.124;5.196;2023-11-22T07:33:41;4.20;99.90
20735;DHT22;10528;52.124;5.196;2023-11-22T07:36:08;4.20;99.90
20735;DHT22;10528;52.124;5.196;2023-11-22T07:38:36;4.20;99.90
20735;DHT22;10528;52.124;5.196;2023-11-22T07:41:05;4.20;99.90
20735;DHT22;10528;52.124;5.196;2023-11-22T07:43:34;4.20;99.90
20735;DHT22;10528;52.124;5.196;2023-11-22T07:46:06;4.20;99.90
20735;DHT22;10528;52.124;5.196;2023-11-22T07:48:41;4.20;99.90
20735;DHT22;10528;52.124;5.196;2023-11-22T07:51:08;4.20;99.90
20735;DHT22;10528;52.124;5.196;2023-11-22T07:53:35;4.20;99.90
20735;DHT22;10528;52.124;5.196;2023-11-22T07:56:03;4.20;99.90
20735;DHT22;10528;52.124;5.196;2023-11-22T07:58:31;4.20;99.90
20735;DHT22;10528;52.124;5.196;2023-11-22T08:00:58;4.10;99.90
20735;DHT22;10528;52.124;5.196;2023-11-22T08:03:26;4.20;99.90
20735;DHT22;10528;52.124;5.196;2023-11-22T08:05:54;4.20;99.90
20735;DHT22;10528;52.124;5.196;2023-11-22T08:08:23;4.20;99.90
20735;DHT22;10528;52.124;5.196;2023-11-22T08:10:50;4.20;99.90
20735;DHT22;10528;52.124;5.196;2023-11-22T08:13:20;4.30;99.90
20735;DHT22;10528;52.124;5.196;2023-11-22T08:15:50;4.30;99.90
20735;DHT22;10528;52.124;5.196;2023-11-22T08:18:18;4.30;99.90
20735;DHT22;10528;52.124;5.196;2023-11-22T08:20:45;4.40;99.90
20735;DHT22;10528;52.124;5.196;2023-11-22T08:23:12;4.40;99.90
20735;DHT22;10528;52.124;5.196;2023-11-22T08:25:42;4.40;99.90
20735;DHT22;10528;52.124;5.196;2023-11-22T08:28:11;4.50;99.90
20735;DHT22;10528;52.124;5.196;2023-11-22T08:30:38;4.50;99.90
20735;DHT22;10528;52.124;5.196;2023-11-22T08:33:07;4.60;99.90
20735;DHT22;10528;52.124;5.196;2023-11-22T08:35:34;4.60;99.90
20735;DHT22;10528;52.124;5.196;2023-11-22T08:38:02;4.70;99.90
20735;DHT22;10528;52.124;5.196;2023-11-22T08:40:30;4.80;99.90
20735;DHT22;10528;52.124;5.196;2023-11-22T08:42:57;4.80;99.90
20735;DHT22;10528;52.124;5.196;2023-11-22T08:45:24;4.80;99.90
20735;DHT22;10528;52.124;5.196;2023-11-22T08:47:51;4.90;99.90
20735;DHT22;10528;52.124;5.196;2023-11-22T08:50:18;4.90;99.90
20735;DHT22;10528;52.124;5.196;2023-11-22T08:52:46;5.00;99.90
20735;DHT22;10528;52.124;5.196;2023-11-22T08:55:13;5.10;99.90
20735;DHT22;10528;52.124;5.196;2023-11-22T08:57:41;5.10;99.90
20735;DHT22;10528;52.124;5.196;2023-11-22T09:00:09;5.10;99.90
20735;DHT22;10528;52.124;5.196;2023-11-22T09:02:37;5.20;99.90
20735;DHT22;10528;52.124;5.196;2023-11-22T09:05:06;5.20;99.90
20735;DHT22;10528;52.124;5.196;2023-11-22T09:07:39;5.20;99.90
20735;DHT22;10528;52.124;5.196;2023-11-22T09:10:06;5.30;99.90
20735;DHT22;10528;52.124;5.196;2023-11-22T09:12:41;5.30;99.90
20735;DHT22;10528;52.124;5.196;2023-11-22T09:15:11;5.30;99.90
20735;DHT22;10528;52.124;5.196;2023-11-22T09:17:44;5.30;99.90
20735;DHT22;10528;52.124;5.196;2023-11-22T09:20:14;5.40;99.90
20735;DHT22;10528;52.124;5.196;2023-11-22T09:22:49;5.50;99.90
20735;DHT22;10528;52.124;5.196;2023-11-22T09:25:19;5.50;99.90
20735;DHT22;10528;52.124;5.196;2023-11-22T09:27:52;5.60;99.90
20735;DHT22;10528;52.124;5.196;2023-11-22T09:30:24;5.60;99.90
20735;DHT22;10528;52.124;5.196;2023-11-22T09:33:08;5.60;99.90
20735;DHT22;10528;52.124;5.196;2023-11-22T09:35:38;5.70;99.90
20735;DHT22;10528;52.124;5.196;2023-11-22T09:38:07;5.70;99.90
20735;DHT22;10528;52.124;5.196;2023-11-22T09:40:47;5.80;99.90
20735;DHT22;10528;52.124;5.196;2023-11-22T09:43:17;5.80;99.90
20735;DHT22;10528;52.124;5.196;2023-11-22T09:45:49;5.90;99.90
20735;DHT22;10528;52.124;5.196;2023-11-22T09:48:23;5.90;99.90
20735;DHT22;10528;52.124;5.196;2023-11-22T09:54:16;6.00;99.90
20735;DHT22;10528;52.124;5.196;2023-11-22T09:56:27;6.10;99.90
20735;DHT22;10528;52.124;5.196;2023-11-22T09:58:57;6.10;99.90
20735;DHT22;10528;52.124;5.196;2023-11-22T10:01:27;6.10;99.90
20735;DHT22;10528;52.124;5.196;2023-11-22T10:03:59;5.90;99.90
20735;DHT22;10528;52.124;5.196;2023-11-22T10:06:26;5.90;99.90
20735;DHT22;10528;52.124;5.196;2023-11-22T10:08:57;6.00;99.90
20735;DHT22;10528;52.124;5.196;2023-11-22T10:11:24;6.00;99.90
20735;DHT22;10528;52.124;5.196;2023-11-22T10:13:51;6.00;99.90
20735;DHT22;10528;52.124;5.196;2023-11-22T10:16:18;6.10;99.90
20735;DHT22;10528;52.124;5.196;2023-11-22T10:18:47;6.10;99.90
20735;DHT22;10528;52.124;5.196;2023-11-22T10:21:24;6.20;99.90
20735;DHT22;10528;52.124;5.196;2023-11-22T10:24:01;6.20;99.90
20735;DHT22;10528;52.124;5.196;2023-11-22T10:26:30;6.30;99.90
20735;DHT22;10528;52.124;5.196;2023-11-22T10:28:58;6.30;99.90
20735;DHT22;10528;52.124;5.196;2023-11-22T10:31:26;6.30;99.90
20735;DHT22;10528;52.124;5.196;2023-11-22T10:33:54;6.30;99.90
20735;DHT22;10528;52.124;5.196;2023-11-22T10:36:25;6.40;99.90
20735;DHT22;10528;52.124;5.196;2023-11-22T10:38:54;6.40;99.90
20735;DHT22;10528;52.124;5.196;2023-11-22T10:41:21;6.60;99.90
20735;DHT22;10528;52.124;5.196;2023-11-22T10:43:54;6.50;99.90
20735;DHT22;10528;52.124;5.196;2023-11-22T10:46:30;6.50;99.90
20735;DHT22;10528;52.124;5.196;2023-11-22T10:48:58;6.50;99.90
20735;DHT22;10528;52.124;5.196;2023-11-22T10:51:30;6.70;99.90
20735;DHT22;10528;52.124;5.196;2023-11-22T10:54:00;6.60;99.90
20735;DHT22;10528;52.124;5.196;2023-11-22T10:56:37;6.60;99.90
20735;DHT22;10528;52.124;5.196;2023-11-22T10:59:13;6.60;99.90
20735;DHT22;10528;52.124;5.196;2023-11-22T11:01:47;6.60;99.90
20735;DHT22;10528;52.124;5.196;2023-11-22T11:04:33;6.50;99.90
20735;DHT22;10528;52.124;5.196;2023-11-22T11:07:05;6.60;99.90
20735;DHT22;10528;52.124;5.196;2023-11-22T11:09:36;6.70;99.90
20735;DHT22;10528;52.124;5.196;2023-11-22T11:12:04;6.80;99.90
20735;DHT22;10528;52.124;5.196;2023-11-22T11:14:35;6.90;99.90
20735;DHT22;10528;52.124;5.196;2023-11-22T11:17:04;7.00;99.90
20735;DHT22;10528;52.124;5.196;2023-11-22T11:19:32;7.00;99.90
20735;DHT22;10528;52.124;5.196;2023-11-22T11:22:01;7.10;99.90
20735;DHT22;10528;52.124;5.196;2023-11-22T11:24:28;7.10;99.90
20735;DHT22;10528;52.124;5.196;2023-11-22T11:26:55;7.00;99.90
20735;DHT22;10528;52.124;5.196;2023-11-22T11:29:32;7.00;99.90
20735;DHT22;10528;52.124;5.196;2023-11-22T11:32:03;7.00;99.90
20735;DHT22;10528;52.124;5.196;2023-11-22T11:34:30;7.00;99.90
20735;DHT22;10528;52.124;5.196;2023-11-22T11:36:59;6.90;99.90
20735;DHT22;10528;52.124;5.196;2023-11-22T11:39:27;6.90;99.90
20735;DHT22;10528;52.124;5.196;2023-11-22T11:42:11;6.90;99.90
20735;DHT22;10528;52.124;5.196;2023-11-22T11:45:03;6.80;99.90
20735;DHT22;10528;52.124;5.196;2023-11-22T11:47:33;6.90;99.90
20735;DHT22;10528;52.124;5.196;2023-11-22T11:50:01;6.90;99.90
20735;DHT22;10528;52.124;5.196;2023-11-22T11:52:29;7.00;99.90
20735;DHT22;10528;52.124;5.196;2023-11-22T11:54:58;7.00;99.90
20735;DHT22;10528;52.124;5.196;2023-11-22T11:57:30;7.10;99.90
20735;DHT22;10528;52.124;5.196;2023-11-22T11:59:59;7.00;99.90
20735;DHT22;10528;52.124;5.196;2023-11-22T12:02:26;7.00;99.90
20735;DHT22;10528;52.124;5.196;2023-11-22T12:04:53;7.00;99.90
20735;DHT22;10528;52.124;5.196;2023-11-22T12:07:21;7.00;99.90
20735;DHT22;10528;52.124;5.196;2023-11-22T12:09:48;7.00;99.90
20735;DHT22;10528;52.124;5.196;2023-11-22T12:12:15;7.10;99.90
20735;DHT22;10528;52.124;5.196;2023-11-22T12:14:42;7.20;99.90
20735;DHT22;10528;52.124;5.196;2023-11-22T12:17:09;7.20;99.90
20735;DHT22;10528;52.124;5.196;2023-11-22T12:19:36;7.20;99.90
20735;DHT22;10528;52.124;5.196;2023-11-22T12:22:05;7.30;99.90
20735;DHT22;10528;52.124;5.196;2023-11-22T12:24:34;7.30;99.90
20735;DHT22;10528;52.124;5.196;2023-11-22T12:27:02;7.40;99.90
20735;DHT22;10528;52.124;5.196;2023-11-22T12:29:29;7.40;99.90
20735;DHT22;10528;52.124;5.196;2023-11-22T12:31:56;7.50;99.90
20735;DHT22;10528;52.124;5.196;2023-11-22T12:34:23;7.60;99.90
20735;DHT22;10528;52.124;5.196;2023-11-22T12:36:53;7.60;99.90
20735;DHT22;10528;52.124;5.196;2023-11-22T12:39:20;7.80;99.90
20735;DHT22;10528;52.124;5.196;2023-11-22T12:41:48;7.60;99.90
20735;DHT22;10528;52.124;5.196;2023-11-22T12:44:32;7.70;99.90
20735;DHT22;10528;52.124;5.196;2023-11-22T12:47:13;7.70;99.90
20735;DHT22;10528;52.124;5.196;2023-11-22T12:49:43;7.70;99.90
20735;DHT22;10528;52.124;5.196;2023-11-22T12:52:14;7.60;99.90
20735;DHT22;10528;52.124;5.196;2023-11-22T12:54:40;7.60;99.90
20735;DHT22;10528;52.124;5.196;2023-11-22T12:57:10;7.70;99.90
20735;DHT22;10528;52.124;5.196;2023-11-22T12:59:39;7.70;99.90
20735;DHT22;10528;52.124;5.196;2023-11-22T13:02:07;7.70;99.90
20735;DHT22;10528;52.124;5.196;2023-11-22T13:04:35;7.70;99.90
20735;DHT22;10528;52.124;5.196;2023-11-22T13:07:03;7.60;99.90
20735;DHT22;10528;52.124;5.196;2023-11-22T13:09:30;7.50;99.90
20735;DHT22;10528;52.124;5.196;2023-11-22T13:11:58;7.60;99.90
20735;DHT22;10528;52.124;5.196;2023-11-22T13:14:25;7.60;99.90
20735;DHT22;10528;52.124;5.196;2023-11-22T13:16:58;7.60;99.90
20735;DHT22;10528;52.124;5.196;2023-11-22T13:19:25;7.70;99.90
20735;DHT22;10528;52.124;5.196;2023-11-22T13:21:52;7.60;99.90
20735;DHT22;10528;52.124;5.196;2023-11-22T13:24:19;7.50;99.90
20735;DHT22;10528;52.124;5.196;2023-11-22T13:26:47;7.30;99.90
20735;DHT22;10528;52.124;5.196;2023-11-22T13:29:14;7.30;99.90
20735;DHT22;10528;52.124;5.196;2023-11-22T13:31:41;7.30;99.90
20735;DHT22;10528;52.124;5.196;2023-11-22T13:34:08;7.40;99.90
20735;DHT22;10528;52.124;5.196;2023-11-22T13:36:35;7.30;99.90
20735;DHT22;10528;52.124;5.196;2023-11-22T13:39:01;7.30;99.90
20735;DHT22;10528;52.124;5.196;2023-11-22T13:41:29;7.20;99.90
20735;DHT22;10528;52.124;5.196;2023-11-22T13:43:56;7.20;99.90
20735;DHT22;10528;52.124;5.196;2023-11-22T13:46:23;7.10;99.90
20735;DHT22;10528;52.124;5.196;2023-11-22T13:48:50;7.20;99.90
20735;DHT22;10528;52.124;5.196;2023-11-22T13:51:17;7.20;99.90
20735;DHT22;10528;52.124;5.196;2023-11-22T13:53:43;7.20;99.90
20735;DHT22;10528;52.124;5.196;2023-11-22T13:56:16;7.20;99.90
20735;DHT22;10528;52.124;5.196;2023-11-22T13:58:45;7.10;99.90
20735;DHT22;10528;52.124;5.196;2023-11-22T14:01:12;7.10;99.90
20735;DHT22;10528;52.124;5.196;2023-11-22T14:03:43;7.10;99.90
20735;DHT22;10528;52.124;5.196;2023-11-22T14:06:10;7.10;99.90
20735;DHT22;10528;52.124;5.196;2023-11-22T14:08:40;7.10;99.90
20735;DHT22;10528;52.124;5.196;2023-11-22T14:11:08;7.20;99.90
20735;DHT22;10528;52.124;5.196;2023-11-22T14:13:35;7.10;99.90
20735;DHT22;10528;52.124;5.196;2023-11-22T14:16:02;7.00;99.90
20735;DHT22;10528;52.124;5.196;2023-11-22T14:18:31;7.10;99.90
20735;DHT22;10528;52.124;5.196;2023-11-22T14:20:58;7.10;99.90
20735;DHT22;10528;52.124;5.196;2023-11-22T14:23:28;7.10;99.90
20735;DHT22;10528;52.124;5.196;2023-11-22T14:25:55;7.10;99.90
20735;DHT22;10528;52.124;5.196;2023-11-22T14:28:22;7.10;99.90
20735;DHT22;10528;52.124;5.196;2023-11-22T14:30:49;7.10;99.90
20735;DHT22;10528;52.124;5.196;2023-11-22T14:33:21;7.10;99.90
20735;DHT22;10528;52.124;5.196;2023-11-22T14:35:48;7.10;99.90
20735;DHT22;10528;52.124;5.196;2023-11-22T14:38:15;7.10;99.90
20735;DHT22;10528;52.124;5.196;2023-11-22T14:40:42;7.20;99.90
20735;DHT22;10528;52.124;5.196;2023-11-22T14:43:08;7.10;99.90
20735;DHT22;10528;52.124;5.196;2023-11-22T14:45:35;7.00;99.90
20735;DHT22;10528;52.124;5.196;2023-11-22T14:48:04;6.90;99.90
20735;DHT22;10528;52.124;5.196;2023-11-22T14:50:32;6.90;99.90
20735;DHT22;10528;52.124;5.196;2023-11-22T14:52:59;6.80;99.90
20735;DHT22;10528;52.124;5.196;2023-11-22T14:55:26;6.80;99.90
20735;DHT22;10528;52.124;5.196;2023-11-22T14:57:53;6.90;99.90
20735;DHT22;10528;52.124;5.196;2023-11-22T15:00:22;6.90;99.90
20735;DHT22;10528;52.124;5.196;2023-11-22T15:02:49;6.90;99.90
20735;DHT22;10528;52.124;5.196;2023-11-22T15:05:20;6.80;99.90
20735;DHT22;10528;52.124;5.196;2023-11-22T15:07:48;6.80;99.90
20735;DHT22;10528;52.124;5.196;2023-11-22T15:10:21;6.80;99.90
20735;DHT22;10528;52.124;5.196;2023-11-22T15:12:48;6.80;99.90
20735;DHT22;10528;52.124;5.196;2023-11-22T15:15:15;6.90;99.90
20735;DHT22;10528;52.124;5.196;2023-11-22T15:17:43;6.90;99.90
20735;DHT22;10528;52.124;5.196;2023-11-22T15:20:11;6.90;99.90
20735;DHT22;10528;52.124;5.196;2023-11-22T15:22:38;6.90;99.90
20735;DHT22;10528;52.124;5.196;2023-11-22T15:25:05;6.90;99.90
20735;DHT22;10528;52.124;5.196;2023-11-22T15:27:33;6.80;99.90
20735;DHT22;10528;52.124;5.196;2023-11-22T15:29:59;6.80;99.90
20735;DHT22;10528;52.124;5.196;2023-11-22T15:32:27;6.80;99.90
20735;DHT22;10528;52.124;5.196;2023-11-22T15:34:54;6.80;99.90
20735;DHT22;10528;52.124;5.196;2023-11-22T15:37:21;6.80;99.90
20735;DHT22;10528;52.124;5.196;2023-11-22T15:39:48;6.80;99.90
20735;DHT22;10528;52.124;5.196;2023-11-22T15:42:15;6.80;99.90
20735;DHT22;10528;52.124;5.196;2023-11-22T15:44:42;6.80;99.90
20735;DHT22;10528;52.124;5.196;2023-11-22T15:47:09;6.70;99.90
20735;DHT22;10528;52.124;5.196;2023-11-22T15:49:40;6.80;99.90
20735;DHT22;10528;52.124;5.196;2023-11-22T15:52:07;6.80;99.90
20735;DHT22;10528;52.124;5.196;2023-11-22T15:54:34;6.80;99.90